createdAt,value
2018-08-17T00:02:01.649Z,23.53
2018-08-17T00:06:10.010Z,24.20
2018-08-17T00:10:18.515Z,24.00
2018-08-17T00:14:26.885Z,29.40
2018-08-17T00:18:35.174Z,25.83
2018-08-17T00:22:43.494Z,25.43
2018-08-17T00:26:51.865Z,23.87
2018-08-17T00:31:00.176Z,24.40
2018-08-17T00:35:08.501Z,25.80
2018-08-17T00:39:16.817Z,25.17
2018-08-17T00:43:25.227Z,25.53
2018-08-17T00:47:33.499Z,30.30
2018-08-17T00:51:41.863Z,27.97
2018-08-17T00:55:50.192Z,27.73
2018-08-17T00:59:58.544Z,22.70
2018-08-17T01:04:06.937Z,24.57
2018-08-17T01:08:15.309Z,22.07
2018-08-17T01:12:23.662Z,19.90
2018-08-17T01:16:31.957Z,23.03
2018-08-17T01:20:40.283Z,14.40
2018-08-17T01:24:48.584Z,16.57
2018-08-17T01:28:56.917Z,15.37
2018-08-17T01:33:05.189Z,14.00
2018-08-17T01:37:13.487Z,11.50
2018-08-17T01:41:21.894Z,14.90
2018-08-17T01:45:30.154Z,17.77
2018-08-17T01:49:38.499Z,14.10
2018-08-17T01:53:46.814Z,9.40
2018-08-17T01:57:55.129Z,10.97
2018-08-17T02:02:03.436Z,11.47
2018-08-17T02:06:11.758Z,7.93
2018-08-17T02:10:20.025Z,9.00
2018-08-17T02:14:28.356Z,10.37
2018-08-17T02:18:36.665Z,10.33
2018-08-17T02:22:45.010Z,10.13
2018-08-17T02:26:53.711Z,10.80
2018-08-17T02:31:02.050Z,12.70
2018-08-17T02:35:10.366Z,9.40
2018-08-17T02:39:18.662Z,12.27
2018-08-17T02:43:27.067Z,10.05
2018-08-17T02:47:35.431Z,9.57
2018-08-17T02:51:43.774Z,12.77
2018-08-17T02:55:52.134Z,13.80
2018-08-17T03:00:00.446Z,11.20
2018-08-17T03:04:08.759Z,9.63
2018-08-17T03:08:17.163Z,16.40
2018-08-17T03:12:25.439Z,12.40
2018-08-17T03:16:33.814Z,13.77
2018-08-17T03:20:42.122Z,15.77
2018-08-17T03:24:50.473Z,17.90
2018-08-17T03:28:58.830Z,12.87
2018-08-17T03:33:07.133Z,13.47
2018-08-17T03:37:15.446Z,13.60
2018-08-17T03:41:23.781Z,14.80
2018-08-17T03:45:32.044Z,11.40
2018-08-17T03:49:40.082Z,18.00
2018-08-17T03:53:48.390Z,12.67
2018-08-17T03:57:56.668Z,10.20
2018-08-17T04:02:04.714Z,12.93
2018-08-17T04:06:13.001Z,13.17
2018-08-17T04:10:21.322Z,11.60
2018-08-17T04:14:29.644Z,13.60
2018-08-17T04:18:37.943Z,11.30
2018-08-17T04:22:46.266Z,17.97
2018-08-17T04:26:54.590Z,17.43
2018-08-17T04:31:02.903Z,12.67
2018-08-17T04:35:11.196Z,11.37
2018-08-17T04:39:19.521Z,17.60
2018-08-17T04:43:27.888Z,15.93
2018-08-17T04:47:36.194Z,12.17
2018-08-17T04:51:44.493Z,15.23
2018-08-17T04:55:52.805Z,13.20
2018-08-17T05:00:01.107Z,14.30
2018-08-17T05:04:09.415Z,12.90
2018-08-17T05:08:17.802Z,13.60
2018-08-17T05:12:26.154Z,14.47
2018-08-17T05:16:34.475Z,12.87
2018-08-17T05:20:42.793Z,10.87
2018-08-17T05:24:51.113Z,15.13
2018-08-17T05:28:59.442Z,10.37
2018-08-17T05:33:07.714Z,14.10
2018-08-17T05:37:15.981Z,10.77
2018-08-17T05:41:24.279Z,12.77
2018-08-17T05:45:32.582Z,10.90
2018-08-17T05:49:40.927Z,11.37
2018-08-17T05:53:49.871Z,11.67
2018-08-17T05:57:58.200Z,11.87
2018-08-17T06:02:06.527Z,11.57
2018-08-17T06:06:14.860Z,12.20
2018-08-17T06:10:23.148Z,15.63
2018-08-17T06:14:31.458Z,11.73
2018-08-17T06:18:39.765Z,11.93
2018-08-17T06:22:48.077Z,14.70
2018-08-17T06:26:56.375Z,15.13
2018-08-17T06:31:04.906Z,11.73
2018-08-17T06:35:13.853Z,10.98
2018-08-17T06:39:22.223Z,9.03
2018-08-17T06:43:30.502Z,7.77
2018-08-17T06:47:38.798Z,14.07
2018-08-17T06:51:47.094Z,9.73
2018-08-17T06:55:55.405Z,11.20
2018-08-17T07:00:04.625Z,9.60
2018-08-17T07:04:12.920Z,10.00
2018-08-17T07:08:21.236Z,7.73
2018-08-17T07:12:29.558Z,9.73
2018-08-17T07:16:38.215Z,9.47
2018-08-17T07:20:46.540Z,13.37
2018-08-17T07:24:54.849Z,12.37
2018-08-17T07:29:03.185Z,14.15
2018-08-17T07:33:11.568Z,13.37
2018-08-17T07:37:19.881Z,11.93
2018-08-17T07:41:28.265Z,15.17
2018-08-17T07:45:36.574Z,11.00
2018-08-17T07:49:44.899Z,10.97
2018-08-17T07:53:53.351Z,10.90
2018-08-17T07:58:01.638Z,11.10
2018-08-17T08:02:09.949Z,15.80
2018-08-17T08:06:18.248Z,7.37
2018-08-17T08:10:26.609Z,9.00
2018-08-17T08:14:34.937Z,11.60
2018-08-17T08:18:43.243Z,9.80
2018-08-17T08:23:01.666Z,8.43
2018-08-17T08:27:09.966Z,9.70
2018-08-17T08:31:18.272Z,8.70
2018-08-17T08:35:26.559Z,8.57
2018-08-17T08:39:34.837Z,7.40
2018-08-17T08:43:43.188Z,6.42
2018-08-17T08:47:51.627Z,7.40
2018-08-17T08:51:59.933Z,6.80
2018-08-17T08:56:08.280Z,7.80
2018-08-17T09:00:16.570Z,8.33
2018-08-17T09:04:24.896Z,8.50
2018-08-17T09:08:33.194Z,9.25
2018-08-17T09:12:41.503Z,9.17
2018-08-17T09:16:49.862Z,8.77
2018-08-17T09:20:58.240Z,8.83
2018-08-17T09:25:06.549Z,9.73
2018-08-17T09:29:14.910Z,11.60
2018-08-17T09:33:23.165Z,11.00
2018-08-17T09:37:31.432Z,7.07
2018-08-17T09:41:39.899Z,6.80
2018-08-17T09:45:48.157Z,7.20
2018-08-17T09:49:56.511Z,7.20
2018-08-17T09:54:05.592Z,6.70
2018-08-17T09:58:13.876Z,7.67
2018-08-17T10:02:27.498Z,11.77
2018-08-17T10:06:41.235Z,8.50
2018-08-17T10:10:49.556Z,7.13
2018-08-17T10:14:57.844Z,11.10
2018-08-17T10:19:06.174Z,9.17
2018-08-17T10:23:20.196Z,10.33
2018-08-17T10:27:28.596Z,8.27
2018-08-17T10:31:38.187Z,12.63
2018-08-17T10:35:46.434Z,12.17
2018-08-17T10:39:54.948Z,9.00
2018-08-17T10:44:03.243Z,13.73
2018-08-17T10:48:11.536Z,15.83
2018-08-17T10:52:19.875Z,21.37
2018-08-17T10:56:28.177Z,16.20
2018-08-17T11:00:36.541Z,15.53
2018-08-17T11:04:45.558Z,12.40
2018-08-17T11:08:53.849Z,14.07
2018-08-17T11:13:02.175Z,15.10
2018-08-17T11:17:10.482Z,14.50
2018-08-17T11:21:18.816Z,16.10
2018-08-17T11:25:27.246Z,11.60
2018-08-17T11:29:35.527Z,12.13
2018-08-17T11:33:43.828Z,15.07
2018-08-17T11:37:52.443Z,11.40
2018-08-17T11:42:00.772Z,10.07
2018-08-17T11:46:09.110Z,17.03
2018-08-17T11:50:18.978Z,15.90
2018-08-17T11:54:27.297Z,15.30
2018-08-17T11:58:35.563Z,7.47
2018-08-17T12:02:44.212Z,9.90
2018-08-17T12:06:52.559Z,7.50
2018-08-17T12:11:06.199Z,9.10
2018-08-17T12:15:15.150Z,9.97
2018-08-17T12:19:23.461Z,7.00
2018-08-17T12:23:31.757Z,8.70
2018-08-17T12:27:42.019Z,13.77
2018-08-17T12:31:50.123Z,9.43
2018-08-17T12:35:58.462Z,11.77
2018-08-17T12:40:06.905Z,6.40
2018-08-17T12:44:17.993Z,12.77
2018-08-17T12:48:26.329Z,7.10
2018-08-17T12:52:34.690Z,9.03
2018-08-17T12:56:43.013Z,14.00
2018-08-17T13:00:51.333Z,10.63
2018-08-17T13:04:59.781Z,7.33
2018-08-17T13:09:08.222Z,8.20
2018-08-17T13:13:16.549Z,8.30
2018-08-17T13:17:26.884Z,7.53
2018-08-17T13:21:35.256Z,6.47
2018-08-17T13:25:43.617Z,7.10
2018-08-17T13:29:51.955Z,12.23
2018-08-17T13:34:00.670Z,6.63
2018-08-17T13:38:09.029Z,6.33
2018-08-17T13:42:17.400Z,9.37
2018-08-17T13:46:25.721Z,7.23
2018-08-17T13:50:34.089Z,6.07
2018-08-17T13:54:44.498Z,4.93
2018-08-17T13:58:52.819Z,7.57
2018-08-17T14:03:01.190Z,6.70
2018-08-17T14:07:09.469Z,6.10
2018-08-17T14:11:17.907Z,9.67
2018-08-17T14:15:26.261Z,6.83
2018-08-17T14:19:34.600Z,5.97
2018-08-17T14:23:43.163Z,3.77
2018-08-17T14:27:51.505Z,5.63
2018-08-17T14:31:59.832Z,6.73
2018-08-17T14:36:08.355Z,4.20
2018-08-17T14:40:16.728Z,8.27
2018-08-17T14:44:25.350Z,8.43
2018-08-17T14:48:33.726Z,3.63
2018-08-17T14:52:42.458Z,5.73
2018-08-17T14:56:50.789Z,5.83
2018-08-17T15:00:59.142Z,7.33
2018-08-17T15:05:09.026Z,6.57
2018-08-17T15:09:17.382Z,6.10
2018-08-17T15:13:25.756Z,4.87
2018-08-17T15:17:34.027Z,9.30
2018-08-17T15:21:42.341Z,6.50
2018-08-17T15:25:50.722Z,10.50
2018-08-17T15:29:59.056Z,7.30
2018-08-17T15:34:07.399Z,6.95
2018-08-17T15:38:15.687Z,3.80
2018-08-17T15:42:24.687Z,5.60
2018-08-17T15:46:33.478Z,3.97
2018-08-17T15:50:41.841Z,3.63
2018-08-17T15:54:50.242Z,5.30
2018-08-17T15:58:58.538Z,3.70
2018-08-17T16:03:06.916Z,4.73
2018-08-17T16:07:15.281Z,3.63
2018-08-17T16:11:23.599Z,8.07
2018-08-17T16:15:31.929Z,6.37
2018-08-17T16:19:40.210Z,6.17
2018-08-17T16:23:48.593Z,4.93
2018-08-17T16:27:56.908Z,7.80
2018-08-17T16:32:05.311Z,4.10
2018-08-17T16:36:13.660Z,8.23
2018-08-17T16:40:21.958Z,4.07
2018-08-17T16:44:30.790Z,5.07
2018-08-17T16:48:39.883Z,6.83
2018-08-17T16:52:48.190Z,6.33
2018-08-17T16:56:56.543Z,4.23
2018-08-17T17:01:04.977Z,5.90
2018-08-17T17:05:13.318Z,5.50
2018-08-17T17:09:21.652Z,5.95
2018-08-17T17:13:29.951Z,5.57
2018-08-17T17:17:38.274Z,6.07
2018-08-17T17:21:47.632Z,6.27
2018-08-17T17:25:55.933Z,4.97
2018-08-17T17:30:05.151Z,6.87
2018-08-17T17:34:13.473Z,6.57
2018-08-17T17:38:21.900Z,7.00
2018-08-17T17:42:29.940Z,8.13
2018-08-17T17:46:38.869Z,6.40
2018-08-17T17:50:47.168Z,8.37
2018-08-17T17:54:55.539Z,7.80
2018-08-17T17:59:11.078Z,5.97
2018-08-17T18:03:19.455Z,7.40
2018-08-17T18:07:33.529Z,8.00
2018-08-17T18:11:41.880Z,5.33
2018-08-17T18:15:50.187Z,6.43
2018-08-17T18:19:58.493Z,8.55
2018-08-17T18:24:12.447Z,7.80
2018-08-17T18:28:20.755Z,8.13
2018-08-17T18:32:29.098Z,7.73
2018-08-17T18:36:37.406Z,9.43
2018-08-17T18:40:45.740Z,13.13
2018-08-17T18:44:54.112Z,10.00
2018-08-17T18:49:02.377Z,5.70
2018-08-17T18:53:10.725Z,11.60
2018-08-17T18:57:19.049Z,8.60
2018-08-17T19:01:27.460Z,9.37
2018-08-17T19:05:35.778Z,6.43
2018-08-17T19:09:44.646Z,7.70
2018-08-17T19:13:52.964Z,6.47
2018-08-17T19:18:01.312Z,12.30
2018-08-17T19:22:09.653Z,5.30
2018-08-17T19:26:17.773Z,7.40
2018-08-17T19:30:31.432Z,7.50
2018-08-17T19:34:39.758Z,5.83
2018-08-17T19:38:48.059Z,5.83
2018-08-17T19:42:56.404Z,12.27
2018-08-17T19:47:04.756Z,17.43
2018-08-17T19:51:17.117Z,10.03
2018-08-17T19:55:25.445Z,6.73
2018-08-17T19:59:34.452Z,6.65
2018-08-17T20:03:42.789Z,8.47
2018-08-17T20:07:51.238Z,12.17
2018-08-17T20:11:59.506Z,10.30
2018-08-17T20:16:18.497Z,9.07
2018-08-17T20:20:26.786Z,9.80
2018-08-17T20:24:35.115Z,10.80
2018-08-17T20:28:43.418Z,12.10
2018-08-17T20:32:51.775Z,11.03
2018-08-17T20:37:00.066Z,9.67
2018-08-17T20:41:08.378Z,9.83
2018-08-17T20:45:16.675Z,10.80
2018-08-17T20:49:25.002Z,10.43
2018-08-17T20:53:33.346Z,6.23
2018-08-17T20:57:41.661Z,5.78
2018-08-17T21:01:49.971Z,6.40
2018-08-17T21:05:58.271Z,6.97
2018-08-17T21:10:06.570Z,7.85
2018-08-17T21:14:14.863Z,11.50
2018-08-17T21:18:23.167Z,8.87
2018-08-17T21:22:31.495Z,9.57
2018-08-17T21:26:39.844Z,11.10
2018-08-17T21:30:48.165Z,9.30
2018-08-17T21:34:56.515Z,7.87
2018-08-17T21:39:13.277Z,9.83
2018-08-17T21:43:21.697Z,6.50
2018-08-17T21:47:29.974Z,6.50
2018-08-17T21:51:38.262Z,8.50
2018-08-17T21:55:46.548Z,7.50
2018-08-17T21:59:54.922Z,5.77
2018-08-17T22:04:03.222Z,4.90
2018-08-17T22:08:11.528Z,7.30
2018-08-17T22:12:19.875Z,8.50
2018-08-17T22:16:28.178Z,5.90
2018-08-17T22:20:36.467Z,7.87
2018-08-17T22:24:50.267Z,8.37
2018-08-17T22:28:58.594Z,12.13
2018-08-17T22:33:06.923Z,5.23
2018-08-17T22:37:15.480Z,5.87
2018-08-17T22:41:23.755Z,8.60
2018-08-17T22:45:32.050Z,5.83
2018-08-17T22:49:40.347Z,8.17
2018-08-17T22:53:48.793Z,9.53
2018-08-17T22:57:59.281Z,5.90
2018-08-17T23:02:07.864Z,5.83
2018-08-17T23:06:16.295Z,8.00
2018-08-17T23:10:25.761Z,7.03
2018-08-17T23:14:34.063Z,8.63
2018-08-17T23:18:42.371Z,9.40
2018-08-17T23:22:52.733Z,6.23
2018-08-17T23:27:01.102Z,7.50
2018-08-17T23:31:09.367Z,9.70
2018-08-17T23:35:17.697Z,6.80
2018-08-17T23:39:26.007Z,7.00
2018-08-17T23:43:34.318Z,6.47
2018-08-17T23:47:42.708Z,7.47
2018-08-17T23:51:51.074Z,6.13
2018-08-17T23:55:59.397Z,7.80
